createdAt,value
2022-09-20T00:00:14.735Z,1.40
2022-09-20T00:01:15.523Z,1.30
2022-09-20T00:02:21.107Z,1.10
2022-09-20T00:03:15.361Z,1.30
2022-09-20T00:04:14.508Z,1.00
2022-09-20T00:05:14.484Z,1.30
2022-09-20T00:06:14.699Z,1.00
2022-09-20T00:07:15.381Z,1.10
2022-09-20T00:08:17.874Z,1.00
2022-09-20T00:09:14.968Z,1.40
2022-09-20T00:10:14.515Z,1.40
2022-09-20T00:11:14.823Z,1.10
2022-09-20T00:12:16.739Z,1.00
2022-09-20T00:13:22.986Z,0.90
2022-09-20T00:14:15.500Z,1.10
2022-09-20T00:15:15.526Z,1.10
2022-09-20T00:16:14.506Z,0.80
2022-09-20T00:17:14.657Z,1.10
2022-09-20T00:18:15.296Z,1.10
2022-09-20T00:19:15.577Z,1.30
2022-09-20T00:20:14.366Z,1.00
2022-09-20T00:21:14.359Z,1.20
2022-09-20T00:22:14.793Z,0.90
2022-09-20T00:23:14.883Z,1.30
2022-09-20T00:24:15.746Z,0.80
2022-09-20T00:25:15.290Z,1.10
2022-09-20T00:26:14.718Z,1.00
2022-09-20T00:27:14.918Z,0.80
2022-09-20T00:28:14.264Z,1.00
2022-09-20T00:29:15.412Z,1.20
2022-09-20T00:30:14.244Z,1.00
2022-09-20T00:31:14.674Z,0.90
2022-09-20T00:32:15.248Z,1.20
2022-09-20T00:33:15.169Z,1.10
2022-09-20T00:34:18.026Z,1.00
2022-09-20T00:35:17.322Z,1.30
2022-09-20T00:36:14.225Z,1.10
2022-09-20T00:37:15.433Z,1.00
2022-09-20T00:38:15.318Z,1.10
2022-09-20T00:39:14.200Z,1.10
2022-09-20T00:40:14.325Z,1.30
2022-09-20T00:41:15.044Z,1.00
2022-09-20T00:42:14.324Z,1.00
2022-09-20T00:43:15.015Z,1.40
2022-09-20T00:44:13.978Z,1.20
2022-09-20T00:45:13.935Z,1.10
2022-09-20T00:46:15.119Z,0.90
2022-09-20T00:47:13.894Z,1.20
2022-09-20T00:48:14.821Z,1.40
2022-09-20T00:49:13.955Z,1.10
2022-09-20T00:50:14.295Z,1.20
2022-09-20T00:51:14.827Z,0.80
2022-09-20T00:52:14.510Z,1.00
2022-09-20T00:53:14.928Z,1.20
2022-09-20T00:54:18.096Z,1.10
2022-09-20T00:55:15.427Z,1.10
2022-09-20T00:56:14.812Z,1.30
2022-09-20T00:57:13.805Z,0.90
2022-09-20T00:58:13.960Z,1.30
2022-09-20T00:59:13.777Z,0.90
2022-09-20T01:00:13.834Z,1.60
2022-09-20T01:01:20.530Z,1.30
2022-09-20T01:02:13.918Z,1.00
2022-09-20T01:03:13.945Z,1.30
2022-09-20T01:04:13.955Z,0.80
2022-09-20T01:05:13.723Z,1.00
2022-09-20T01:06:13.758Z,1.20
2022-09-20T01:07:14.716Z,1.40
2022-09-20T01:08:15.185Z,0.80
2022-09-20T01:09:13.841Z,1.20
2022-09-20T01:10:14.656Z,1.40
2022-09-20T01:11:15.087Z,1.00
2022-09-20T01:12:13.589Z,1.20
2022-09-20T01:13:21.393Z,1.20
2022-09-20T01:14:14.018Z,1.00
2022-09-20T01:15:14.742Z,1.30
2022-09-20T01:16:13.995Z,1.10
2022-09-20T01:17:13.652Z,1.30
2022-09-20T01:18:18.476Z,1.10
2022-09-20T01:19:14.622Z,1.20
2022-09-20T01:20:14.564Z,0.80
2022-09-20T01:21:13.646Z,1.00
2022-09-20T01:22:14.583Z,1.10
2022-09-20T01:23:13.593Z,1.20
2022-09-20T01:24:14.497Z,0.80
2022-09-20T01:25:15.030Z,1.30
2022-09-20T01:26:14.732Z,0.90
2022-09-20T01:27:14.570Z,1.40
2022-09-20T01:28:14.286Z,0.70
2022-09-20T01:29:14.111Z,1.90
2022-09-20T01:30:15.262Z,1.40
2022-09-20T01:31:13.961Z,0.90
2022-09-20T01:32:13.806Z,0.90
2022-09-20T01:33:15.938Z,0.70
2022-09-20T01:34:13.869Z,1.10
2022-09-20T01:35:19.978Z,1.00
2022-09-20T01:36:13.467Z,0.90
2022-09-20T01:37:13.754Z,1.00
2022-09-20T01:38:14.638Z,1.00
2022-09-20T01:39:13.702Z,0.90
2022-09-20T01:40:14.304Z,1.50
2022-09-20T01:41:13.326Z,0.90
2022-09-20T01:42:13.207Z,0.80
2022-09-20T01:43:13.524Z,0.80
2022-09-20T01:44:13.978Z,0.80
2022-09-20T01:45:14.314Z,1.00
2022-09-20T01:46:20.852Z,0.70
2022-09-20T01:47:13.395Z,0.90
2022-09-20T01:48:13.643Z,1.10
2022-09-20T01:49:14.330Z,0.70
2022-09-20T01:50:14.065Z,1.00
2022-09-20T01:51:13.487Z,0.70
2022-09-20T01:52:19.806Z,1.00
2022-09-20T01:53:13.259Z,1.10
2022-09-20T01:54:13.675Z,1.30
2022-09-20T01:55:14.084Z,1.10
2022-09-20T01:56:13.041Z,1.00
2022-09-20T01:57:23.717Z,1.50
2022-09-20T01:58:16.735Z,1.00
2022-09-20T01:59:23.580Z,1.10
2022-09-20T02:00:14.506Z,1.50
2022-09-20T02:01:13.006Z,1.20
2022-09-20T02:02:13.011Z,1.30
2022-09-20T02:03:15.509Z,1.80
2022-09-20T02:04:12.994Z,1.60
2022-09-20T02:05:15.172Z,1.20
2022-09-20T02:06:13.781Z,0.90
2022-09-20T02:07:14.458Z,1.40
2022-09-20T02:08:13.844Z,1.30
2022-09-20T02:09:13.290Z,1.20
2022-09-20T02:10:12.937Z,1.30
2022-09-20T02:11:12.837Z,1.00
2022-09-20T02:12:13.674Z,1.40
2022-09-20T02:13:13.254Z,0.80
2022-09-20T02:14:13.937Z,0.90
2022-09-20T02:15:14.019Z,1.00
2022-09-20T02:16:13.022Z,1.20
2022-09-20T02:17:12.935Z,1.20
2022-09-20T02:18:13.146Z,1.20
2022-09-20T02:19:13.964Z,0.80
2022-09-20T02:20:13.987Z,0.90
2022-09-20T02:21:13.077Z,1.40
2022-09-20T02:22:12.695Z,0.80
2022-09-20T02:23:12.882Z,0.90
2022-09-20T02:24:12.709Z,1.70
2022-09-20T02:25:13.912Z,0.80
2022-09-20T02:26:12.658Z,0.90
2022-09-20T02:27:15.372Z,1.00
2022-09-20T02:28:13.481Z,1.00
2022-09-20T02:29:12.632Z,0.80
2022-09-20T02:30:13.633Z,1.00
2022-09-20T02:31:12.984Z,0.70
2022-09-20T02:32:13.956Z,1.10
2022-09-20T02:33:12.714Z,1.10
2022-09-20T02:34:12.696Z,1.00
2022-09-20T02:35:13.068Z,1.40
2022-09-20T02:36:14.042Z,1.20
2022-09-20T02:37:12.777Z,0.90
2022-09-20T02:38:12.681Z,0.90
2022-09-20T02:39:12.569Z,1.00
2022-09-20T02:40:12.600Z,0.70
2022-09-20T02:41:20.173Z,1.10
2022-09-20T02:42:14.904Z,1.10
2022-09-20T02:43:12.877Z,0.90
2022-09-20T02:44:13.502Z,0.60
2022-09-20T02:45:15.698Z,0.70
2022-09-20T02:46:12.548Z,0.90
2022-09-20T02:47:14.515Z,1.00
2022-09-20T02:48:14.419Z,1.00
2022-09-20T02:49:12.672Z,1.10
2022-09-20T02:50:12.428Z,1.00
2022-09-20T02:51:13.587Z,1.00
2022-09-20T02:52:20.623Z,0.80
2022-09-20T02:53:12.334Z,1.10
2022-09-20T02:54:13.948Z,1.10
2022-09-20T02:55:12.800Z,1.10
2022-09-20T02:56:13.513Z,0.80
2022-09-20T02:57:20.223Z,0.90
2022-09-20T02:58:14.277Z,1.10
2022-09-20T02:59:12.282Z,1.50
2022-09-20T03:00:13.398Z,0.80
2022-09-20T03:01:12.271Z,0.90
2022-09-20T03:02:13.357Z,0.80
2022-09-20T03:03:14.804Z,1.20
2022-09-20T03:04:12.184Z,1.10
2022-09-20T03:05:12.212Z,1.00
2022-09-20T03:06:12.168Z,1.00
2022-09-20T03:07:12.196Z,0.90
2022-09-20T03:08:14.436Z,1.10
2022-09-20T03:09:12.953Z,1.30
2022-09-20T03:10:12.553Z,1.00
2022-09-20T03:11:13.427Z,1.00
2022-09-20T03:12:13.628Z,1.00
2022-09-20T03:13:13.186Z,0.60
2022-09-20T03:14:19.219Z,0.90
2022-09-20T03:15:12.314Z,1.10
2022-09-20T03:16:12.911Z,1.30
2022-09-20T03:17:13.099Z,0.90
2022-09-20T03:18:18.989Z,1.50
2022-09-20T03:19:12.526Z,0.90
2022-09-20T03:20:13.879Z,1.10
2022-09-20T03:21:12.351Z,1.40
2022-09-20T03:22:12.325Z,0.90
2022-09-20T03:23:13.700Z,1.10
2022-09-20T03:24:12.957Z,1.30
2022-09-20T03:25:11.914Z,1.00
2022-09-20T03:26:13.065Z,1.30
2022-09-20T03:27:12.401Z,1.50
2022-09-20T03:28:11.926Z,1.10
2022-09-20T03:29:12.521Z,1.10
2022-09-20T03:30:11.899Z,1.20
2022-09-20T03:31:18.987Z,1.10
2022-09-20T03:32:12.656Z,1.00
2022-09-20T03:33:12.266Z,1.60
2022-09-20T03:34:13.138Z,0.90
2022-09-20T03:35:12.159Z,0.80
2022-09-20T03:36:21.167Z,1.10
2022-09-20T03:37:12.338Z,0.80
2022-09-20T03:38:11.888Z,0.80
2022-09-20T03:39:12.581Z,0.70
2022-09-20T03:40:13.926Z,0.80
2022-09-20T03:41:13.622Z,1.00
2022-09-20T03:42:12.249Z,1.00
2022-09-20T03:43:11.739Z,0.80
2022-09-20T03:44:12.357Z,1.00
2022-09-20T03:45:11.999Z,0.80
2022-09-20T03:46:12.683Z,1.10
2022-09-20T03:47:11.700Z,0.80
2022-09-20T03:48:11.738Z,0.90
2022-09-20T03:49:12.127Z,0.90
2022-09-20T03:50:11.712Z,0.80
2022-09-20T03:51:11.632Z,1.00
2022-09-20T03:52:13.002Z,1.00
2022-09-20T03:53:12.071Z,1.40
2022-09-20T03:54:12.002Z,1.10
2022-09-20T03:55:11.881Z,1.10
2022-09-20T03:56:12.145Z,1.10
2022-09-20T03:57:12.515Z,1.20
2022-09-20T03:58:12.515Z,1.20
2022-09-20T03:59:11.559Z,0.90
2022-09-20T04:00:11.925Z,1.40
2022-09-20T04:01:11.545Z,0.90
2022-09-20T04:02:13.459Z,1.60
2022-09-20T04:03:18.238Z,0.60
2022-09-20T04:04:12.257Z,1.00
2022-09-20T04:05:11.396Z,1.00
2022-09-20T04:06:12.260Z,1.00
2022-09-20T04:07:11.641Z,0.80
2022-09-20T04:08:12.351Z,1.20
2022-09-20T04:09:11.408Z,1.00
2022-09-20T04:10:11.820Z,1.20
2022-09-20T04:11:13.730Z,0.90
2022-09-20T04:12:11.697Z,0.90
2022-09-20T04:13:13.445Z,0.80
2022-09-20T04:14:13.246Z,0.90
2022-09-20T04:15:11.391Z,0.70
2022-09-20T04:16:12.344Z,0.90
2022-09-20T04:17:11.287Z,1.40
2022-09-20T04:18:13.542Z,1.10
2022-09-20T04:19:16.892Z,0.80
2022-09-20T04:20:11.629Z,0.70
2022-09-20T04:21:12.853Z,1.00
2022-09-20T04:22:11.181Z,1.00
2022-09-20T04:23:11.229Z,0.70
2022-09-20T04:24:12.149Z,0.90
2022-09-20T04:25:11.167Z,0.90
2022-09-20T04:26:12.720Z,0.80
2022-09-20T04:27:11.246Z,0.80
2022-09-20T04:28:11.325Z,1.00
2022-09-20T04:29:19.478Z,1.20
2022-09-20T04:30:11.180Z,0.90
2022-09-20T04:31:11.096Z,0.90
2022-09-20T04:32:11.238Z,1.20
2022-09-20T04:33:13.884Z,0.80
2022-09-20T04:34:11.634Z,1.10
2022-09-20T04:35:12.331Z,1.00
2022-09-20T04:36:11.670Z,1.00
2022-09-20T04:37:11.981Z,0.80
2022-09-20T04:38:11.062Z,0.80
2022-09-20T04:39:11.191Z,0.90
2022-09-20T04:40:11.534Z,1.60
2022-09-20T04:41:22.680Z,0.80
2022-09-20T04:42:11.320Z,1.10
2022-09-20T04:43:12.246Z,0.80
2022-09-20T04:44:17.713Z,1.00
2022-09-20T04:45:11.158Z,1.00
2022-09-20T04:46:17.322Z,1.20
2022-09-20T04:47:11.116Z,0.90
2022-09-20T04:48:18.569Z,1.20
2022-09-20T04:49:12.127Z,1.50
2022-09-20T04:50:12.066Z,1.20
2022-09-20T04:51:11.188Z,1.30
2022-09-20T04:52:19.518Z,1.30
2022-09-20T04:53:11.920Z,0.80
2022-09-20T04:54:14.233Z,1.60
2022-09-20T04:55:10.876Z,1.20
2022-09-20T04:56:11.124Z,1.10
2022-09-20T04:57:12.362Z,1.70
2022-09-20T04:58:10.813Z,0.90
2022-09-20T04:59:11.748Z,0.80
2022-09-20T05:00:12.058Z,1.10
2022-09-20T05:01:11.485Z,0.90
2022-09-20T05:02:12.297Z,1.40
2022-09-20T05:03:12.494Z,0.90
2022-09-20T05:04:11.588Z,1.20
2022-09-20T05:05:11.066Z,1.10
2022-09-20T05:06:10.834Z,1.50
2022-09-20T05:07:10.714Z,1.10
2022-09-20T05:08:13.031Z,1.00
2022-09-20T05:09:11.325Z,1.30
2022-09-20T05:10:10.598Z,1.20
2022-09-20T05:11:12.560Z,0.90
2022-09-20T05:12:11.153Z,1.00
2022-09-20T05:13:16.878Z,1.20
2022-09-20T05:14:12.034Z,1.30
2022-09-20T05:15:11.511Z,1.30
2022-09-20T05:16:10.530Z,1.40
2022-09-20T05:17:10.977Z,1.10
2022-09-20T05:18:14.917Z,1.60
2022-09-20T05:19:18.344Z,1.60
2022-09-20T05:20:11.832Z,0.90
2022-09-20T05:21:10.544Z,1.20
2022-09-20T05:22:12.067Z,1.30
2022-09-20T05:23:10.602Z,0.90
2022-09-20T05:24:12.752Z,1.10
2022-09-20T05:25:12.438Z,1.10
2022-09-20T05:26:10.479Z,1.20
2022-09-20T05:27:10.446Z,1.60
2022-09-20T05:28:11.680Z,1.60
2022-09-20T05:29:10.640Z,1.00
2022-09-20T05:30:12.845Z,1.60
2022-09-20T05:31:10.793Z,1.70
2022-09-20T05:32:10.428Z,1.30
2022-09-20T05:33:11.575Z,1.30
2022-09-20T05:34:10.409Z,1.40
2022-09-20T05:35:11.541Z,1.50
2022-09-20T05:36:10.847Z,1.30
2022-09-20T05:37:10.491Z,1.40
2022-09-20T05:38:12.256Z,1.10
2022-09-20T05:39:10.436Z,1.30
2022-09-20T05:40:16.758Z,1.10
2022-09-20T05:41:11.430Z,1.40
2022-09-20T05:42:10.272Z,1.40
2022-09-20T05:43:11.087Z,1.40
2022-09-20T05:44:13.406Z,1.30
2022-09-20T05:45:10.153Z,1.30
2022-09-20T05:46:18.664Z,1.70
2022-09-20T05:47:10.478Z,1.90
2022-09-20T05:48:10.094Z,1.80
2022-09-20T05:49:11.618Z,1.40
2022-09-20T05:50:10.991Z,1.60
2022-09-20T05:51:11.737Z,1.30
2022-09-20T05:52:10.510Z,2.10
2022-09-20T05:53:16.565Z,1.30
2022-09-20T05:54:10.563Z,1.60
2022-09-20T05:55:10.344Z,1.50
2022-09-20T05:56:10.615Z,1.10
2022-09-20T05:57:10.943Z,1.40
2022-09-20T05:58:10.104Z,1.20
2022-09-20T05:59:11.826Z,1.40
2022-09-20T06:00:10.885Z,1.10
2022-09-20T06:01:10.282Z,1.40
2022-09-20T06:02:10.931Z,2.20
2022-09-20T06:03:09.876Z,1.30
2022-09-20T06:04:10.003Z,1.30
2022-09-20T06:05:09.945Z,1.70
2022-09-20T06:06:10.212Z,1.60
2022-09-20T06:07:09.828Z,1.30
2022-09-20T06:08:10.751Z,1.50
2022-09-20T06:09:09.833Z,1.30
2022-09-20T06:10:09.837Z,1.10
2022-09-20T06:11:09.828Z,1.90
2022-09-20T06:12:09.816Z,1.20
2022-09-20T06:13:09.885Z,1.30
2022-09-20T06:14:10.773Z,1.60
2022-09-20T06:15:10.053Z,1.60
2022-09-20T06:16:09.872Z,1.10
2022-09-20T06:17:10.274Z,1.30
2022-09-20T06:18:10.911Z,1.00
2022-09-20T06:19:09.706Z,1.30
2022-09-20T06:20:10.640Z,1.70
2022-09-20T06:21:09.809Z,1.20
2022-09-20T06:22:09.708Z,1.30
2022-09-20T06:23:09.623Z,1.30
2022-09-20T06:24:09.721Z,1.70
2022-09-20T06:25:09.656Z,1.20
2022-09-20T06:26:10.830Z,1.30
2022-09-20T06:27:10.571Z,1.50
2022-09-20T06:28:10.559Z,1.60
2022-09-20T06:29:11.750Z,1.20
2022-09-20T06:30:09.549Z,1.10
2022-09-20T06:31:10.635Z,1.20
2022-09-20T06:32:10.656Z,1.30
2022-09-20T06:33:10.041Z,1.30
2022-09-20T06:34:10.737Z,1.60
2022-09-20T06:35:09.697Z,1.10
2022-09-20T06:36:09.777Z,1.00
2022-09-20T06:37:11.749Z,1.60
2022-09-20T06:38:10.669Z,1.70
2022-09-20T06:39:09.715Z,1.90
2022-09-20T06:40:10.651Z,1.20
2022-09-20T06:41:10.266Z,1.00
2022-09-20T06:42:10.040Z,1.20
2022-09-20T06:43:10.128Z,1.20
2022-09-20T06:44:16.306Z,1.30
2022-09-20T06:45:10.566Z,1.20
2022-09-20T06:46:10.026Z,1.70
2022-09-20T06:47:11.103Z,1.70
2022-09-20T06:48:10.949Z,1.10
2022-09-20T06:49:11.415Z,1.20
2022-09-20T06:50:09.661Z,1.10
2022-09-20T06:51:09.352Z,1.60
2022-09-20T06:52:10.487Z,1.00
2022-09-20T06:53:10.106Z,1.40
2022-09-20T06:54:10.262Z,0.90
2022-09-20T06:55:17.834Z,1.00
2022-09-20T06:56:09.320Z,1.10
2022-09-20T06:57:09.428Z,1.70
2022-09-20T06:58:09.356Z,1.90
2022-09-20T06:59:09.623Z,1.30
2022-09-20T07:00:10.334Z,0.80
2022-09-20T07:01:11.833Z,1.50
2022-09-20T07:02:20.921Z,0.90
2022-09-20T07:03:09.488Z,1.00
2022-09-20T07:04:10.584Z,1.20
2022-09-20T07:05:13.542Z,1.10
2022-09-20T07:06:15.799Z,1.50
2022-09-20T07:07:11.049Z,0.90
2022-09-20T07:08:10.844Z,1.30
2022-09-20T07:09:10.356Z,0.80
2022-09-20T07:10:09.152Z,1.30
2022-09-20T07:11:11.243Z,1.40
2022-09-20T07:12:09.199Z,1.10
2022-09-20T07:13:09.307Z,1.20
2022-09-20T07:14:09.904Z,1.00
2022-09-20T07:15:10.713Z,1.10
2022-09-20T07:16:10.410Z,0.90
2022-09-20T07:17:19.934Z,1.30
2022-09-20T07:18:09.668Z,1.30
2022-09-20T07:19:09.248Z,1.20
2022-09-20T07:20:09.867Z,1.30
2022-09-20T07:21:11.161Z,1.10
2022-09-20T07:22:11.171Z,1.50
2022-09-20T07:23:09.892Z,1.40
2022-09-20T07:24:10.772Z,1.20
2022-09-20T07:25:10.042Z,1.30
2022-09-20T07:26:10.011Z,1.00
2022-09-20T07:27:16.808Z,1.50
2022-09-20T07:28:09.780Z,1.20
2022-09-20T07:29:09.718Z,1.20
2022-09-20T07:30:13.220Z,1.80
2022-09-20T07:31:09.691Z,1.40
2022-09-20T07:32:09.859Z,1.30
2022-09-20T07:33:37.600Z,1.40
2022-09-20T07:34:38.976Z,1.20
2022-09-20T07:35:38.148Z,1.50
2022-09-20T07:36:37.329Z,1.20
2022-09-20T07:37:46.258Z,1.60
2022-09-20T07:38:42.295Z,1.70
2022-09-20T07:39:38.569Z,1.40
2022-09-20T07:40:37.462Z,1.30
2022-09-20T07:41:38.209Z,1.50
2022-09-20T07:42:45.821Z,1.30
2022-09-20T07:43:37.696Z,1.70
2022-09-20T07:44:40.559Z,1.50
2022-09-20T07:45:38.788Z,1.80
2022-09-20T07:46:42.160Z,2.70
2022-09-20T07:47:39.463Z,1.40
2022-09-20T07:48:37.112Z,1.60
2022-09-20T07:49:39.301Z,1.50
2022-09-20T07:50:37.862Z,1.60
2022-09-20T07:51:37.385Z,1.50
2022-09-20T07:52:37.765Z,2.40
2022-09-20T07:53:44.604Z,1.50
2022-09-20T07:54:37.053Z,1.30
2022-09-20T07:55:37.043Z,1.40
2022-09-20T07:56:38.375Z,1.30
2022-09-20T07:57:36.998Z,1.60
2022-09-20T07:58:38.303Z,1.70
2022-09-20T07:59:43.947Z,1.70
2022-09-20T08:00:38.190Z,1.40
2022-09-20T08:01:37.449Z,1.60
2022-09-20T08:02:37.563Z,1.50
2022-09-20T08:03:38.946Z,1.50
2022-09-20T08:04:44.603Z,1.90
2022-09-20T08:05:37.027Z,1.70
2022-09-20T08:06:38.477Z,1.30
2022-09-20T08:07:37.119Z,1.40
2022-09-20T08:08:37.449Z,1.50
2022-09-20T08:09:38.637Z,1.10
2022-09-20T08:10:40.648Z,1.30
2022-09-20T08:11:37.897Z,1.50
2022-09-20T08:14:45.121Z,1.50
2022-09-20T08:15:45.026Z,2.00
2022-09-20T08:16:37.023Z,1.70
2022-09-20T08:17:42.731Z,2.00
2022-09-20T08:18:36.937Z,2.60
2022-09-20T08:19:37.171Z,1.30
2022-09-20T08:20:46.214Z,1.70
2022-09-20T08:21:50.231Z,1.40
2022-09-20T08:22:37.102Z,1.50
2022-09-20T08:23:40.126Z,1.40
2022-09-20T08:24:38.028Z,1.00
2022-09-20T08:25:37.688Z,1.70
2022-09-20T08:26:38.542Z,1.40
2022-09-20T08:27:38.619Z,1.20
2022-09-20T08:28:36.779Z,1.90
2022-09-20T08:29:36.994Z,1.20
2022-09-20T08:30:37.313Z,1.40
2022-09-20T08:31:37.204Z,1.50
2022-09-20T08:32:38.641Z,1.30
2022-09-20T08:33:40.253Z,2.00
2022-09-20T08:34:39.133Z,1.40
2022-09-20T08:35:39.791Z,1.30
2022-09-20T08:36:37.789Z,1.30
2022-09-20T08:37:37.496Z,1.20
2022-09-20T08:40:39.193Z,1.20
2022-09-20T08:41:37.257Z,1.40
2022-09-20T08:42:42.155Z,1.10
2022-09-20T08:43:38.969Z,1.10
2022-09-20T08:44:37.599Z,0.90
2022-09-20T08:45:36.944Z,0.90
2022-09-20T08:46:38.064Z,1.10
2022-09-20T08:47:37.073Z,1.20
2022-09-20T08:48:37.447Z,1.20
2022-09-20T08:49:36.344Z,1.30
2022-09-20T08:50:37.474Z,1.30
2022-09-20T08:51:36.438Z,1.20
2022-09-20T08:52:36.930Z,1.20
2022-09-20T08:53:36.316Z,1.20
2022-09-20T08:54:43.599Z,1.20
2022-09-20T08:55:36.837Z,1.90
2022-09-20T08:56:36.373Z,1.10
2022-09-20T08:57:36.445Z,1.70
2022-09-20T08:58:36.421Z,1.80
2022-09-20T08:59:39.222Z,1.40
2022-09-20T09:00:36.207Z,1.80
2022-09-20T09:01:37.647Z,1.10
2022-09-20T09:02:37.297Z,1.60
2022-09-20T09:03:36.329Z,1.60
2022-09-20T09:04:36.968Z,0.90
2022-09-20T09:05:38.314Z,1.20
2022-09-20T09:06:37.380Z,1.10
2022-09-20T09:07:39.198Z,1.10
2022-09-20T09:08:39.112Z,0.70
2022-09-20T09:09:37.571Z,1.10
2022-09-20T09:10:43.462Z,1.20
2022-09-20T09:11:37.627Z,1.50
2022-09-20T09:12:36.190Z,1.00
2022-09-20T09:13:36.312Z,0.90
2022-09-20T09:14:36.053Z,1.20
2022-09-20T09:15:37.189Z,0.70
2022-09-20T09:16:36.652Z,1.70
2022-09-20T09:17:37.405Z,2.00
2022-09-20T09:18:39.883Z,1.30
2022-09-20T09:19:36.469Z,0.90
2022-09-20T09:20:36.164Z,0.80
2022-09-20T09:21:42.611Z,0.80
2022-09-20T09:22:36.285Z,1.00
2022-09-20T09:23:36.028Z,1.40
2022-09-20T09:24:36.556Z,0.90
2022-09-20T09:25:37.351Z,1.60
2022-09-20T09:26:35.896Z,0.90
2022-09-20T09:27:43.519Z,1.10
2022-09-20T09:28:36.024Z,0.60
2022-09-20T09:29:36.139Z,1.50
2022-09-20T09:30:37.256Z,0.90
2022-09-20T09:31:36.467Z,1.30
2022-09-20T09:32:59.799Z,0.70
2022-09-20T09:33:36.771Z,1.00
2022-09-20T09:34:36.379Z,0.90
2022-09-20T09:35:37.143Z,0.60
2022-09-20T09:36:35.735Z,0.90
2022-09-20T09:37:36.999Z,0.70
2022-09-20T09:38:47.189Z,1.40
2022-09-20T09:39:36.046Z,1.40
2022-09-20T09:40:35.950Z,1.30
2022-09-20T09:41:35.767Z,0.70
2022-09-20T09:42:35.798Z,1.10
2022-09-20T09:44:00.007Z,0.70
2022-09-20T09:44:37.237Z,1.40
2022-09-20T09:45:35.770Z,0.80
2022-09-20T09:46:35.896Z,0.80
2022-09-20T09:47:36.110Z,1.10
2022-09-20T09:48:39.359Z,1.20
2022-09-20T09:49:36.774Z,0.90
2022-09-20T09:50:42.477Z,0.90
2022-09-20T09:51:35.895Z,0.90
2022-09-20T09:52:36.526Z,0.70
2022-09-20T09:53:35.605Z,1.10
2022-09-20T09:54:36.039Z,1.00
2022-09-20T09:55:36.694Z,1.90
2022-09-20T09:56:36.236Z,1.10
2022-09-20T09:57:35.628Z,1.00
2022-09-20T09:58:35.859Z,1.20
2022-09-20T09:59:36.842Z,0.90
2022-09-20T10:00:37.908Z,0.70
2022-09-20T10:01:36.476Z,0.70
2022-09-20T10:02:36.582Z,0.70
2022-09-20T10:03:35.375Z,0.90
2022-09-20T10:04:35.887Z,0.90
2022-09-20T10:05:36.348Z,0.80
2022-09-20T10:06:36.376Z,0.70
2022-09-20T10:07:36.436Z,0.80
2022-09-20T10:08:35.433Z,0.70
2022-09-20T10:09:35.601Z,0.60
2022-09-20T10:10:35.932Z,0.60
2022-09-20T10:11:36.793Z,0.80
2022-09-20T10:12:35.980Z,1.20
2022-09-20T10:13:41.240Z,0.80
2022-09-20T10:14:35.531Z,1.40
2022-09-20T10:15:35.493Z,1.00
2022-09-20T10:16:35.332Z,1.00
2022-09-20T10:17:36.345Z,1.00
2022-09-20T10:18:35.228Z,1.20
2022-09-20T10:19:35.727Z,1.20
2022-09-20T10:20:36.560Z,1.30
2022-09-20T10:21:36.289Z,1.20
2022-09-20T10:22:51.508Z,1.30
2022-09-20T10:24:02.128Z,1.40
2022-09-20T10:24:37.239Z,1.40
2022-09-20T10:25:36.973Z,1.40
2022-09-20T10:26:35.262Z,1.10
2022-09-20T10:27:37.157Z,1.60
2022-09-20T10:28:35.388Z,1.20
2022-09-20T10:29:35.973Z,1.10
2022-09-20T10:30:35.589Z,1.40
2022-09-20T10:31:35.150Z,1.30
2022-09-20T10:32:35.548Z,1.20
2022-09-20T10:33:37.096Z,1.90
2022-09-20T10:34:35.871Z,1.60
2022-09-20T10:35:36.017Z,1.10
2022-09-20T10:36:35.618Z,1.00
2022-09-20T10:37:36.306Z,0.90
2022-09-20T10:38:35.691Z,1.00
2022-09-20T10:39:36.776Z,1.20
2022-09-20T10:40:35.438Z,1.30
2022-09-20T10:41:35.852Z,2.20
2022-09-20T10:42:35.483Z,1.60
2022-09-20T10:43:35.594Z,1.10
2022-09-20T10:44:37.034Z,0.90
2022-09-20T10:46:08.664Z,1.00
2022-09-20T10:46:37.837Z,1.20
2022-09-20T10:47:38.645Z,1.10
2022-09-20T10:48:35.784Z,1.60
2022-09-20T10:49:35.212Z,1.60
2022-09-20T10:50:35.988Z,1.20
2022-09-20T10:51:38.036Z,1.70
2022-09-20T10:52:35.232Z,1.40
2022-09-20T10:53:35.366Z,1.30
2022-09-20T10:54:34.924Z,1.30
2022-09-20T10:55:35.757Z,1.60
2022-09-20T10:56:35.464Z,1.50
2022-09-20T10:57:36.025Z,1.70
2022-09-20T10:58:35.412Z,1.20
2022-09-20T10:59:36.171Z,1.00
2022-09-20T11:00:41.961Z,1.60
2022-09-20T11:01:36.867Z,1.70
2022-09-20T11:02:35.852Z,1.30
2022-09-20T11:03:35.369Z,2.30
2022-09-20T11:04:36.179Z,1.60
2022-09-20T11:05:34.802Z,1.70
2022-09-20T11:06:36.326Z,1.50
2022-09-20T11:08:23.014Z,1.40
2022-09-20T11:09:22.955Z,2.10
2022-09-20T11:10:23.191Z,1.90
2022-09-20T11:11:23.291Z,2.10
2022-09-20T11:12:23.939Z,1.80
2022-09-20T11:13:24.394Z,1.80
2022-09-20T11:14:23.859Z,1.90
2022-09-20T11:15:24.278Z,1.80
2022-09-20T11:16:23.436Z,2.00
2022-09-20T11:17:23.769Z,2.00
2022-09-20T11:18:24.191Z,2.30
2022-09-20T11:19:24.815Z,2.10
2022-09-20T11:20:25.414Z,2.10
2022-09-20T11:21:24.026Z,1.80
2022-09-20T11:22:23.537Z,2.10
2022-09-20T11:23:26.940Z,3.00
2022-09-20T11:24:30.622Z,4.50
2022-09-20T11:25:28.757Z,1.40
2022-09-20T11:26:24.905Z,1.40
2022-09-20T11:27:23.473Z,1.00
2022-09-20T11:28:22.747Z,0.70
2022-09-20T11:29:29.535Z,0.80
2022-09-20T11:30:22.666Z,0.60
2022-09-20T11:31:24.471Z,0.50
2022-09-20T11:32:22.652Z,0.70
2022-09-20T11:33:23.599Z,0.70
2022-09-20T11:34:22.632Z,0.70
2022-09-20T11:35:28.647Z,0.60
2022-09-20T11:36:24.551Z,1.50
2022-09-20T11:37:22.636Z,0.60
2022-09-20T11:38:23.568Z,0.70
2022-09-20T11:39:24.703Z,2.00
2022-09-20T11:40:22.982Z,1.20
2022-09-20T11:41:29.206Z,1.10
2022-09-20T11:42:22.699Z,1.70
2022-09-20T11:43:22.737Z,0.70
2022-09-20T11:44:22.616Z,1.50
2022-09-20T11:45:26.358Z,1.20
2022-09-20T11:46:28.976Z,1.40
2022-09-20T11:47:42.819Z,0.80
2022-09-20T11:48:23.485Z,0.90
2022-09-20T11:49:22.749Z,1.00
2022-09-20T11:50:22.530Z,1.30
2022-09-20T11:51:23.458Z,1.50
2022-09-20T11:52:22.488Z,1.40
2022-09-20T11:53:23.462Z,1.10
2022-09-20T11:54:24.144Z,1.10
2022-09-20T11:55:22.409Z,1.30
2022-09-20T11:56:22.649Z,1.50
2022-09-20T11:57:23.293Z,1.30
2022-09-20T11:58:22.341Z,1.70
2022-09-20T11:59:22.675Z,2.00
2022-09-20T12:00:24.392Z,1.30
2022-09-20T12:01:26.112Z,1.00
2022-09-20T12:02:24.942Z,1.30
2022-09-20T12:03:23.404Z,1.60
2022-09-20T12:04:32.359Z,1.30
2022-09-20T12:05:47.227Z,1.50
2022-09-20T12:06:22.234Z,1.10
2022-09-20T12:07:22.644Z,1.40
2022-09-20T12:08:23.370Z,1.40
2022-09-20T12:09:22.169Z,1.80
2022-09-20T12:10:23.255Z,1.20
2022-09-20T12:11:22.212Z,1.50
2022-09-20T12:12:22.456Z,1.40
2022-09-20T12:13:23.090Z,1.80
2022-09-20T12:14:22.492Z,1.70
2022-09-20T12:15:22.476Z,1.80
2022-09-20T12:16:23.797Z,1.70
2022-09-20T12:17:22.461Z,1.80
2022-09-20T12:18:28.231Z,2.00
2022-09-20T12:19:22.767Z,2.00
2022-09-20T12:20:22.463Z,1.90
2022-09-20T12:21:22.116Z,2.30
2022-09-20T12:22:22.818Z,2.50
2022-09-20T12:23:22.029Z,3.00
2022-09-20T12:24:28.363Z,2.00
2022-09-20T12:25:22.277Z,2.90
2022-09-20T12:26:21.948Z,3.40
2022-09-20T12:27:22.178Z,2.80
2022-09-20T12:28:22.473Z,2.30
2022-09-20T12:29:22.881Z,2.60
2022-09-20T12:30:22.676Z,3.40
2022-09-20T12:31:22.060Z,3.30
2022-09-20T12:32:22.179Z,2.70
2022-09-20T12:33:21.998Z,3.10
2022-09-20T12:34:46.904Z,3.00
2022-09-20T12:35:22.001Z,3.10
2022-09-20T12:36:21.818Z,2.80
2022-09-20T12:37:22.104Z,3.00
2022-09-20T12:38:21.970Z,3.20
2022-09-20T12:39:27.574Z,2.90
2022-09-20T12:40:29.670Z,3.40
2022-09-20T12:41:28.178Z,3.20
2022-09-20T12:42:23.529Z,3.10
2022-09-20T12:43:22.488Z,3.60
2022-09-20T12:44:28.776Z,3.00
2022-09-20T12:45:24.141Z,3.10
2022-09-20T12:46:22.248Z,2.20
2022-09-20T12:47:21.670Z,2.30
2022-09-20T12:48:21.832Z,2.00
2022-09-20T12:49:21.788Z,2.10
2022-09-20T12:50:29.200Z,2.30
2022-09-20T12:51:21.824Z,2.20
2022-09-20T12:52:21.610Z,1.80
2022-09-20T12:53:21.940Z,2.20
2022-09-20T12:54:22.683Z,1.60
2022-09-20T12:55:23.367Z,1.00
2022-09-20T12:56:21.598Z,1.20
2022-09-20T12:57:22.797Z,1.00
2022-09-20T12:58:21.972Z,1.00
2022-09-20T12:59:23.066Z,0.80
2022-09-20T13:00:21.662Z,1.00
2022-09-20T13:01:22.676Z,1.00
2022-09-20T13:02:22.618Z,0.80
2022-09-20T13:03:22.530Z,0.60
2022-09-20T13:04:22.787Z,0.80
2022-09-20T13:05:21.749Z,0.70
2022-09-20T13:06:28.070Z,0.70
2022-09-20T13:07:21.902Z,0.80
2022-09-20T13:08:22.899Z,0.70
2022-09-20T13:09:21.610Z,0.80
2022-09-20T13:10:22.499Z,0.60
2022-09-20T13:11:38.833Z,0.50
2022-09-20T13:12:21.936Z,0.40
2022-09-20T13:13:21.681Z,0.10
2022-09-20T13:14:21.554Z,0.10
2022-09-20T13:15:22.422Z,0.30
2022-09-20T13:16:21.822Z,0.70
2022-09-20T13:17:22.774Z,0.20
2022-09-20T13:18:21.867Z,0.30
2022-09-20T13:19:21.347Z,0.20
2022-09-20T13:20:21.767Z,0.30
2022-09-20T13:21:21.783Z,0.40
2022-09-20T13:22:21.716Z,0.30
2022-09-20T13:23:24.507Z,0.30